createdAt,value
2018-11-11T00:00:11.989Z,0.00
2018-11-11T00:01:11.967Z,0.00
2018-11-11T00:02:12.032Z,0.00
2018-11-11T00:03:11.977Z,0.00
2018-11-11T00:04:11.935Z,0.00
2018-11-11T00:05:11.973Z,0.00
2018-11-11T00:06:11.920Z,0.00
2018-11-11T00:07:11.912Z,0.00
2018-11-11T00:08:11.968Z,0.00
2018-11-11T00:09:11.905Z,0.00
2018-11-11T00:10:11.882Z,0.00
2018-11-11T00:11:11.862Z,0.00
2018-11-11T00:12:11.932Z,0.00
2018-11-11T00:13:11.942Z,0.00
2018-11-11T00:14:11.837Z,0.00
2018-11-11T00:15:11.823Z,0.00
2018-11-11T00:16:11.806Z,0.00
2018-11-11T00:17:11.799Z,0.00
2018-11-11T00:18:11.824Z,0.00
2018-11-11T00:19:11.777Z,0.00
2018-11-11T00:20:11.772Z,0.00
2018-11-11T00:21:11.781Z,0.00
2018-11-11T00:22:11.749Z,0.00
2018-11-11T00:23:11.798Z,0.00
2018-11-11T00:24:11.735Z,0.00
2018-11-11T00:25:11.772Z,0.00
2018-11-11T00:26:11.712Z,0.00
2018-11-11T00:27:11.716Z,0.00
2018-11-11T00:28:11.751Z,0.00
2018-11-11T00:29:11.756Z,0.00
2018-11-11T00:30:11.676Z,0.00
2018-11-11T00:31:11.663Z,0.00
2018-11-11T00:32:11.648Z,0.00
2018-11-11T00:33:11.743Z,0.00
2018-11-11T00:34:11.644Z,0.00
2018-11-11T00:35:11.613Z,0.00
2018-11-11T00:36:11.595Z,0.00
2018-11-11T00:37:11.597Z,0.00
2018-11-11T00:38:11.621Z,0.00
2018-11-11T00:39:11.566Z,0.00
2018-11-11T00:40:11.556Z,0.00
2018-11-11T00:41:11.550Z,0.00
2018-11-11T00:42:11.587Z,0.00
2018-11-11T00:43:11.559Z,0.00
2018-11-11T00:44:11.509Z,0.00
2018-11-11T00:45:11.505Z,0.00
2018-11-11T00:46:11.487Z,0.00
2018-11-11T00:47:11.512Z,0.00
2018-11-11T00:48:11.495Z,0.00
2018-11-11T00:49:11.457Z,0.00
2018-11-11T00:50:11.452Z,0.00
2018-11-11T00:51:11.441Z,0.00
2018-11-11T00:52:11.423Z,0.00
2018-11-11T00:53:11.488Z,0.00
2018-11-11T00:54:11.403Z,0.00
2018-11-11T00:55:11.394Z,0.00
2018-11-11T00:56:11.386Z,0.00
2018-11-11T00:57:11.386Z,0.00
2018-11-11T00:58:11.396Z,0.00
2018-11-11T00:59:11.438Z,0.00
2018-11-11T01:00:11.339Z,0.00
2018-11-11T01:01:11.330Z,0.00
2018-11-11T01:02:11.318Z,0.00
2018-11-11T01:03:11.340Z,0.00
2018-11-11T01:04:11.298Z,0.00
2018-11-11T01:05:11.299Z,0.00
2018-11-11T01:06:11.274Z,0.00
2018-11-11T01:07:11.265Z,0.00
2018-11-11T01:08:11.282Z,0.00
2018-11-11T01:09:11.246Z,0.00
2018-11-11T01:10:11.243Z,0.00
2018-11-11T01:11:11.230Z,0.00
2018-11-11T01:12:11.276Z,0.00
2018-11-11T01:13:11.259Z,0.00
2018-11-11T01:14:11.210Z,0.00
2018-11-11T01:15:11.189Z,0.00
2018-11-11T01:16:11.172Z,0.00
2018-11-11T01:17:11.202Z,0.00
2018-11-11T01:18:11.182Z,0.00
2018-11-11T01:19:11.142Z,0.00
2018-11-11T01:20:11.186Z,0.00
2018-11-11T01:21:11.181Z,0.00
2018-11-11T01:22:11.134Z,0.00
2018-11-11T01:23:11.182Z,0.00
2018-11-11T01:24:11.163Z,0.00
2018-11-11T01:25:11.078Z,0.00
2018-11-11T01:26:11.105Z,0.00
2018-11-11T01:27:11.055Z,0.00
2018-11-11T01:28:11.071Z,0.00
2018-11-11T01:29:11.066Z,0.00
2018-11-11T01:30:11.053Z,0.00
2018-11-11T01:31:11.016Z,0.00
2018-11-11T01:32:11.006Z,0.00
2018-11-11T01:33:11.063Z,0.00
2018-11-11T01:34:10.982Z,0.00
2018-11-11T01:35:10.968Z,0.00
2018-11-11T01:36:10.993Z,0.00
2018-11-11T01:37:10.952Z,0.00
2018-11-11T01:38:10.969Z,0.00
2018-11-11T01:39:10.924Z,0.00
2018-11-11T01:40:10.939Z,0.00
2018-11-11T01:41:10.929Z,0.00
2018-11-11T01:42:10.922Z,0.00
2018-11-11T01:43:10.938Z,0.00
2018-11-11T01:44:10.883Z,0.00
2018-11-11T01:45:10.866Z,0.00
2018-11-11T01:46:10.853Z,0.00
2018-11-11T01:47:10.896Z,0.00
2018-11-11T01:48:11.546Z,0.00
2018-11-11T01:49:10.822Z,0.00
2018-11-11T01:50:10.809Z,0.00
2018-11-11T01:51:10.953Z,0.00
2018-11-11T01:52:10.805Z,0.00
2018-11-11T01:53:10.778Z,0.00
2018-11-11T01:54:10.832Z,0.00
2018-11-11T01:55:10.761Z,0.00
2018-11-11T01:56:10.745Z,0.00
2018-11-11T01:57:10.747Z,0.00
2018-11-11T01:58:10.733Z,0.00
2018-11-11T01:59:10.768Z,0.00
2018-11-11T02:00:10.706Z,0.00
2018-11-11T02:01:10.697Z,0.00
2018-11-11T02:02:10.688Z,0.00
2018-11-11T02:03:10.673Z,0.00
2018-11-11T02:04:10.696Z,0.00
2018-11-11T02:05:10.679Z,0.00
2018-11-11T02:06:10.645Z,0.00
2018-11-11T02:07:10.631Z,0.00
2018-11-11T02:08:10.619Z,0.00
2018-11-11T02:09:10.637Z,0.00
2018-11-11T02:10:10.604Z,0.00
2018-11-11T02:11:10.619Z,0.00
2018-11-11T02:12:10.591Z,0.00
2018-11-11T02:13:10.584Z,0.00
2018-11-11T02:14:10.603Z,0.00
2018-11-11T02:15:10.549Z,0.00
2018-11-11T02:16:10.541Z,0.00
2018-11-11T02:17:10.526Z,0.00
2018-11-11T02:18:10.569Z,0.00
2018-11-11T02:19:10.538Z,0.00
2018-11-11T02:20:10.506Z,0.00
2018-11-11T02:21:10.566Z,0.00
2018-11-11T02:22:10.478Z,0.00
2018-11-11T02:23:10.459Z,0.00
2018-11-11T02:24:10.539Z,0.00
2018-11-11T02:25:10.456Z,0.00
2018-11-11T02:26:10.428Z,0.00
2018-11-11T02:27:10.426Z,0.00
2018-11-11T02:28:10.413Z,0.00
2018-11-11T02:29:10.458Z,0.00
2018-11-11T02:30:10.429Z,0.00
2018-11-11T02:31:10.384Z,0.00
2018-11-11T02:32:10.377Z,0.00
2018-11-11T02:33:10.367Z,0.00
2018-11-11T02:34:10.374Z,0.00
2018-11-11T02:35:10.339Z,0.00
2018-11-11T02:36:10.348Z,0.00
2018-11-11T02:37:10.319Z,0.00
2018-11-11T02:38:10.304Z,0.00
2018-11-11T02:39:10.339Z,0.00
2018-11-11T02:40:10.287Z,0.00
2018-11-11T02:41:10.291Z,0.00
2018-11-11T02:42:10.260Z,0.00
2018-11-11T02:43:10.248Z,0.00
2018-11-11T02:44:10.294Z,0.00
2018-11-11T02:45:10.246Z,0.00
2018-11-11T02:46:10.233Z,0.00
2018-11-11T02:47:10.208Z,0.00
2018-11-11T02:48:10.197Z,0.00
2018-11-11T02:49:10.229Z,0.00
2018-11-11T02:50:10.188Z,0.00
2018-11-11T02:51:10.166Z,0.00
2018-11-11T02:52:10.355Z,0.00
2018-11-11T02:53:10.149Z,0.00
2018-11-11T02:54:10.163Z,0.00
2018-11-11T02:55:10.172Z,0.00
2018-11-11T02:56:10.749Z,0.00
2018-11-11T02:57:10.108Z,0.00
2018-11-11T02:58:10.175Z,0.00
2018-11-11T02:59:10.121Z,0.00
2018-11-11T03:00:10.075Z,0.00
2018-11-11T03:01:10.058Z,0.00
2018-11-11T03:02:10.081Z,0.00
2018-11-11T03:03:10.041Z,0.00
2018-11-11T03:04:10.162Z,0.00
2018-11-11T03:05:10.023Z,0.00
2018-11-11T03:06:10.052Z,0.00
2018-11-11T03:07:09.995Z,0.00
2018-11-11T03:08:09.991Z,0.00
2018-11-11T03:09:10.002Z,0.00
2018-11-11T03:10:09.963Z,0.00
2018-11-11T03:11:09.953Z,0.00
2018-11-11T03:12:09.986Z,0.00
2018-11-11T03:13:09.935Z,0.00
2018-11-11T03:14:09.956Z,0.00
2018-11-11T03:15:09.917Z,0.00
2018-11-11T03:16:09.927Z,0.00
2018-11-11T03:17:09.892Z,0.00
2018-11-11T03:18:09.898Z,0.00
2018-11-11T03:19:09.897Z,0.00
2018-11-11T03:20:09.861Z,0.00
2018-11-11T03:21:09.849Z,0.00
2018-11-11T03:22:09.838Z,0.00
2018-11-11T03:23:09.828Z,0.00
2018-11-11T03:24:09.945Z,0.00
2018-11-11T03:25:09.808Z,0.00
2018-11-11T03:26:09.802Z,0.00
2018-11-11T03:27:09.789Z,0.00
2018-11-11T03:28:09.779Z,0.00
2018-11-11T03:29:09.836Z,0.00
2018-11-11T03:30:09.781Z,0.00
2018-11-11T03:31:09.778Z,0.00
2018-11-11T03:32:09.757Z,0.00
2018-11-11T03:33:09.725Z,0.00
2018-11-11T03:34:09.744Z,0.00
2018-11-11T03:35:09.700Z,0.00
2018-11-11T03:36:09.694Z,0.00
2018-11-11T03:37:09.703Z,0.00
2018-11-11T03:38:09.672Z,0.00
2018-11-11T03:39:09.703Z,0.00
2018-11-11T03:40:09.649Z,0.00
2018-11-11T03:41:09.655Z,0.00
2018-11-11T03:42:09.629Z,0.00
2018-11-11T03:43:09.652Z,0.00
2018-11-11T03:44:09.638Z,0.00
2018-11-11T03:45:09.602Z,0.00
2018-11-11T03:46:09.623Z,0.00
2018-11-11T03:47:09.576Z,0.00
2018-11-11T03:48:09.578Z,0.00
2018-11-11T03:49:09.606Z,0.00
2018-11-11T03:50:09.550Z,0.00
2018-11-11T03:51:09.534Z,0.00
2018-11-11T03:52:09.527Z,0.00
2018-11-11T03:53:09.517Z,0.00
2018-11-11T03:54:09.539Z,0.00
2018-11-11T03:55:09.535Z,0.00
2018-11-11T03:56:09.483Z,0.00
2018-11-11T03:57:09.473Z,0.00
2018-11-11T03:58:09.463Z,0.00
2018-11-11T03:59:09.798Z,0.00
2018-11-11T04:00:09.447Z,0.00
2018-11-11T04:01:09.481Z,0.00
2018-11-11T04:02:09.424Z,0.00
2018-11-11T04:03:09.416Z,0.00
2018-11-11T04:04:09.427Z,0.00
2018-11-11T04:05:09.388Z,0.00
2018-11-11T04:06:09.381Z,0.00
2018-11-11T04:07:09.388Z,0.00
2018-11-11T04:08:09.359Z,0.00
2018-11-11T04:09:09.380Z,0.00
2018-11-11T04:10:09.347Z,0.00
2018-11-11T04:11:09.328Z,0.00
2018-11-11T04:12:09.316Z,0.00
2018-11-11T04:13:09.343Z,0.00
2018-11-11T04:14:09.323Z,0.00
2018-11-11T04:15:09.286Z,0.00
2018-11-11T04:16:09.275Z,0.00
2018-11-11T04:17:09.263Z,0.00
2018-11-11T04:18:09.270Z,0.00
2018-11-11T04:19:09.324Z,0.00
2018-11-11T04:20:09.234Z,0.00
2018-11-11T04:21:09.226Z,0.00
2018-11-11T04:22:09.229Z,0.00
2018-11-11T04:23:09.207Z,0.00
2018-11-11T04:24:09.219Z,0.00
2018-11-11T04:25:09.233Z,0.00
2018-11-11T04:26:09.178Z,0.00
2018-11-11T04:27:09.190Z,0.00
2018-11-11T04:28:09.327Z,0.00
2018-11-11T04:29:09.439Z,0.00
2018-11-11T04:30:09.136Z,0.00
2018-11-11T04:31:09.129Z,0.00
2018-11-11T04:32:09.107Z,0.00
2018-11-11T04:33:09.181Z,0.00
2018-11-11T04:34:09.090Z,0.00
2018-11-11T04:35:09.112Z,0.00
2018-11-11T04:36:09.102Z,0.00
2018-11-11T04:37:09.077Z,0.00
2018-11-11T04:38:09.045Z,0.00
2018-11-11T04:39:09.119Z,0.00
2018-11-11T04:40:09.106Z,0.00
2018-11-11T04:41:09.015Z,0.00
2018-11-11T04:42:09.008Z,0.00
2018-11-11T04:43:09.061Z,0.00
2018-11-11T04:44:08.990Z,0.00
2018-11-11T04:45:08.977Z,0.00
2018-11-11T04:46:09.059Z,0.00
2018-11-11T04:47:08.954Z,0.00
2018-11-11T04:48:08.937Z,0.00
2018-11-11T04:49:08.926Z,0.00
2018-11-11T04:50:08.916Z,0.00
2018-11-11T04:51:08.986Z,0.00
2018-11-11T04:52:08.923Z,0.00
2018-11-11T04:53:08.885Z,0.00
2018-11-11T04:54:08.881Z,0.00
2018-11-11T04:55:08.879Z,0.00
2018-11-11T04:56:08.852Z,0.00
2018-11-11T04:57:08.877Z,0.00
2018-11-11T04:58:08.859Z,0.00
2018-11-11T04:59:08.834Z,0.00
2018-11-11T05:00:08.817Z,0.00
2018-11-11T05:01:08.801Z,0.00
2018-11-11T05:02:08.817Z,0.00
2018-11-11T05:03:08.814Z,0.00
2018-11-11T05:04:08.789Z,0.00
2018-11-11T05:05:08.787Z,0.00
2018-11-11T05:06:08.756Z,0.00
2018-11-11T05:07:08.737Z,0.00
2018-11-11T05:08:08.774Z,0.00
2018-11-11T05:09:08.731Z,0.00
2018-11-11T05:10:08.705Z,0.00
2018-11-11T05:11:08.702Z,0.00
2018-11-11T05:12:08.713Z,0.00
2018-11-11T05:13:08.706Z,0.00
2018-11-11T05:14:08.677Z,0.00
2018-11-11T05:15:08.682Z,0.00
2018-11-11T05:16:08.643Z,0.00
2018-11-11T05:17:08.641Z,0.00
2018-11-11T05:18:08.684Z,0.00
2018-11-11T05:19:08.655Z,0.00
2018-11-11T05:20:08.603Z,0.00
2018-11-11T05:21:08.604Z,0.00
2018-11-11T05:22:08.586Z,0.00
2018-11-11T05:23:08.602Z,0.00
2018-11-11T05:24:08.625Z,0.00
2018-11-11T05:25:08.551Z,0.00
2018-11-11T05:26:08.554Z,0.00
2018-11-11T05:27:08.622Z,0.00
2018-11-11T05:28:08.564Z,0.00
2018-11-11T05:29:08.519Z,0.00
2018-11-11T05:30:08.536Z,0.00
2018-11-11T05:31:08.490Z,0.00
2018-11-11T05:32:08.496Z,0.00
2018-11-11T05:33:08.497Z,0.00
2018-11-11T05:34:08.456Z,0.00
2018-11-11T05:35:08.514Z,0.00
2018-11-11T05:36:08.438Z,0.00
2018-11-11T05:37:08.435Z,0.00
2018-11-11T05:38:08.450Z,0.00
2018-11-11T05:39:08.414Z,0.00
2018-11-11T05:40:08.395Z,0.00
2018-11-11T05:41:08.430Z,0.00
2018-11-11T05:42:08.386Z,0.00
2018-11-11T05:43:08.412Z,0.00
2018-11-11T05:44:08.356Z,0.00
2018-11-11T05:45:08.383Z,0.00
2018-11-11T05:46:08.334Z,0.00
2018-11-11T05:47:08.404Z,0.00
2018-11-11T05:48:08.341Z,0.00
2018-11-11T05:49:08.305Z,0.00
2018-11-11T05:50:08.293Z,0.00
2018-11-11T05:51:08.335Z,0.00
2018-11-11T05:52:08.267Z,0.00
2018-11-11T05:53:08.286Z,0.00
2018-11-11T05:54:09.098Z,0.00
2018-11-11T05:55:08.239Z,0.00
2018-11-11T05:56:08.229Z,0.00
2018-11-11T05:57:08.233Z,0.00
2018-11-11T05:58:08.237Z,0.00
2018-11-11T05:59:08.197Z,0.00
2018-11-11T06:00:08.186Z,0.00
2018-11-11T06:01:08.283Z,0.00
2018-11-11T06:02:08.170Z,0.00
2018-11-11T06:03:08.210Z,0.00
2018-11-11T06:04:08.143Z,0.00
2018-11-11T06:05:08.135Z,0.00
2018-11-11T06:06:08.126Z,0.00
2018-11-11T06:07:08.175Z,0.00
2018-11-11T06:08:08.293Z,0.00
2018-11-11T06:09:08.108Z,0.00
2018-11-11T06:10:08.083Z,0.00
2018-11-11T06:11:08.103Z,0.00
2018-11-11T06:12:08.151Z,0.00
2018-11-11T06:13:08.085Z,0.00
2018-11-11T06:14:08.040Z,0.00
2018-11-11T06:15:08.086Z,0.00
2018-11-11T06:16:08.046Z,0.00
2018-11-11T06:17:08.013Z,0.00
2018-11-11T06:18:08.053Z,0.00
2018-11-11T06:19:08.023Z,0.00
2018-11-11T06:20:08.035Z,0.00
2018-11-11T06:21:07.963Z,0.00
2018-11-11T06:22:07.985Z,0.00
2018-11-11T06:23:09.791Z,0.00
2018-11-11T06:24:07.933Z,0.00
2018-11-11T06:25:07.924Z,0.00
2018-11-11T06:26:07.913Z,0.00
2018-11-11T06:27:07.900Z,0.00
2018-11-11T06:28:07.973Z,0.00
2018-11-11T06:29:07.916Z,0.00
2018-11-11T06:30:08.002Z,0.00
2018-11-11T06:31:07.866Z,0.00
2018-11-11T06:32:07.863Z,0.00
2018-11-11T06:33:08.009Z,0.00
2018-11-11T06:34:07.916Z,0.00
2018-11-11T06:35:07.835Z,0.00
2018-11-11T06:36:07.805Z,0.00
2018-11-11T06:37:07.794Z,0.00
2018-11-11T06:38:07.825Z,5.62
2018-11-11T06:39:07.772Z,5.62
2018-11-11T06:40:07.819Z,5.62
2018-11-11T06:41:07.756Z,5.62
2018-11-11T06:42:07.868Z,5.62
2018-11-11T06:43:07.802Z,5.62
2018-11-11T06:44:07.742Z,5.62
2018-11-11T06:45:07.801Z,5.62
2018-11-11T06:46:07.730Z,5.62
2018-11-11T06:47:07.692Z,5.62
2018-11-11T06:48:08.077Z,5.62
2018-11-11T06:49:07.714Z,5.62
2018-11-11T06:50:07.677Z,5.62
2018-11-11T06:51:07.728Z,5.62
2018-11-11T06:52:07.802Z,5.62
2018-11-11T06:53:07.631Z,5.62
2018-11-11T06:54:07.774Z,5.62
2018-11-11T06:55:07.778Z,5.62
2018-11-11T06:56:15.245Z,11.25
2018-11-11T06:57:15.247Z,11.25
2018-11-11T06:58:07.670Z,11.25
2018-11-11T06:59:07.617Z,11.25
2018-11-11T07:00:07.793Z,11.25
2018-11-11T07:01:07.545Z,16.88
2018-11-11T07:02:07.535Z,16.88
2018-11-11T07:03:07.547Z,16.88
2018-11-11T07:04:08.062Z,16.88
2018-11-11T07:05:09.437Z,22.50
2018-11-11T07:06:07.512Z,22.50
2018-11-11T07:07:07.640Z,22.50
2018-11-11T07:08:07.579Z,22.50
2018-11-11T07:09:07.679Z,28.12
2018-11-11T07:10:07.539Z,28.12
2018-11-11T07:11:07.578Z,28.12
2018-11-11T07:12:07.484Z,33.75
2018-11-11T07:13:07.918Z,39.38
2018-11-11T07:14:09.610Z,45.00
2018-11-11T07:15:07.531Z,50.62
2018-11-11T07:16:07.384Z,50.62
2018-11-11T07:17:07.372Z,61.88
2018-11-11T07:18:07.363Z,67.50
2018-11-11T07:19:07.370Z,67.50
2018-11-11T07:20:07.766Z,67.50
2018-11-11T07:21:07.408Z,67.50
2018-11-11T07:22:07.356Z,67.50
2018-11-11T07:23:07.389Z,67.50
2018-11-11T07:24:07.426Z,67.50
2018-11-11T07:25:07.779Z,67.50
2018-11-11T07:26:07.282Z,61.88
2018-11-11T07:27:07.295Z,67.50
2018-11-11T07:28:07.258Z,61.88
2018-11-11T07:29:07.319Z,61.88
2018-11-11T07:30:07.425Z,56.25
2018-11-11T07:31:07.345Z,50.62
2018-11-11T07:32:07.259Z,50.62
2018-11-11T07:33:07.215Z,45.00
2018-11-11T07:34:08.515Z,45.00
2018-11-11T07:35:07.221Z,39.38
2018-11-11T07:36:07.219Z,39.38
2018-11-11T07:37:07.260Z,33.75
2018-11-11T07:38:07.338Z,33.75
2018-11-11T07:39:07.141Z,33.75
2018-11-11T07:40:07.173Z,33.75
2018-11-11T07:41:07.132Z,33.75
2018-11-11T07:42:07.128Z,39.38
2018-11-11T07:43:07.164Z,39.38
2018-11-11T07:44:07.223Z,39.38
2018-11-11T07:45:07.155Z,33.75
2018-11-11T07:46:07.071Z,33.75
2018-11-11T07:47:07.060Z,28.12
2018-11-11T07:48:07.263Z,39.38
2018-11-11T07:49:07.336Z,45.00
2018-11-11T07:50:07.098Z,50.62
2018-11-11T07:51:07.075Z,50.62
2018-11-11T07:52:07.113Z,50.62
2018-11-11T07:53:07.106Z,50.62
2018-11-11T07:54:06.988Z,50.62
2018-11-11T07:55:07.213Z,50.62
2018-11-11T07:56:07.007Z,50.62
2018-11-11T07:57:06.952Z,50.62
2018-11-11T07:58:07.137Z,50.62
2018-11-11T07:59:06.992Z,56.25
2018-11-11T08:00:07.121Z,56.25
2018-11-11T08:01:06.912Z,56.25
2018-11-11T08:02:07.017Z,56.25
2018-11-11T08:03:06.891Z,56.25
2018-11-11T08:04:06.922Z,56.25
2018-11-11T08:05:07.135Z,61.88
2018-11-11T08:06:06.860Z,67.50
2018-11-11T08:07:06.849Z,73.12
2018-11-11T08:08:06.844Z,73.12
2018-11-11T08:09:06.826Z,84.38
2018-11-11T08:10:06.852Z,90.00
2018-11-11T08:11:06.825Z,101.25
2018-11-11T08:12:06.796Z,118.12
2018-11-11T08:13:06.785Z,123.75
2018-11-11T08:14:07.353Z,129.38
2018-11-11T08:15:06.801Z,140.62
2018-11-11T08:16:06.814Z,146.25
2018-11-11T08:17:06.763Z,146.25
2018-11-11T08:18:06.839Z,140.62
2018-11-11T08:19:06.727Z,146.25
2018-11-11T08:20:06.820Z,129.38
2018-11-11T08:21:06.707Z,118.12
2018-11-11T08:22:06.739Z,112.50
2018-11-11T08:23:06.726Z,112.50
2018-11-11T08:24:06.842Z,112.50
2018-11-11T08:25:06.940Z,118.12
2018-11-11T08:26:07.268Z,146.25
2018-11-11T08:27:06.675Z,180.00
2018-11-11T08:28:06.626Z,196.88
2018-11-11T08:29:06.618Z,196.88
2018-11-11T08:30:06.605Z,196.88
2018-11-11T08:31:06.627Z,196.88
2018-11-11T08:32:06.723Z,196.88
2018-11-11T08:33:06.575Z,208.12
2018-11-11T08:34:06.574Z,208.12
2018-11-11T08:35:06.575Z,213.75
2018-11-11T08:36:06.554Z,202.50
2018-11-11T08:37:06.577Z,180.00
2018-11-11T08:38:06.575Z,180.00
2018-11-11T08:39:06.587Z,191.25
2018-11-11T08:40:06.501Z,196.88
2018-11-11T08:41:06.489Z,196.88
2018-11-11T08:42:06.639Z,185.62
2018-11-11T08:43:06.466Z,180.00
2018-11-11T08:44:06.461Z,163.12
2018-11-11T08:45:06.484Z,151.88
2018-11-11T08:46:06.531Z,146.25
2018-11-11T08:47:06.608Z,157.50
2018-11-11T08:48:06.514Z,151.88
2018-11-11T08:49:06.422Z,140.62
2018-11-11T08:50:06.466Z,146.25
2018-11-11T08:51:06.387Z,151.88
2018-11-11T08:52:06.704Z,180.00
2018-11-11T08:53:06.596Z,191.25
2018-11-11T08:54:06.384Z,196.88
2018-11-11T08:55:06.340Z,213.75
2018-11-11T08:56:06.357Z,208.12
2018-11-11T08:57:06.320Z,191.25
2018-11-11T08:58:06.954Z,191.25
2018-11-11T08:59:06.646Z,185.62
2018-11-11T09:00:06.330Z,180.00
2018-11-11T09:01:06.280Z,185.62
2018-11-11T09:02:06.268Z,208.12
2018-11-11T09:03:06.286Z,202.50
2018-11-11T09:04:06.244Z,196.88
2018-11-11T09:05:06.461Z,196.88
2018-11-11T09:06:06.589Z,174.38
2018-11-11T09:07:06.218Z,168.75
2018-11-11T09:08:06.220Z,168.75
2018-11-11T09:09:06.194Z,174.38
2018-11-11T09:10:06.264Z,163.12
2018-11-11T09:11:06.208Z,157.50
2018-11-11T09:12:06.168Z,151.88
2018-11-11T09:13:06.493Z,163.12
2018-11-11T09:14:06.150Z,174.38
2018-11-11T09:15:06.163Z,202.50
2018-11-11T09:16:06.202Z,230.62
2018-11-11T09:17:06.141Z,236.25
2018-11-11T09:18:06.104Z,225.00
2018-11-11T09:19:06.359Z,230.62
2018-11-11T09:20:06.115Z,230.62
2018-11-11T09:21:06.085Z,225.00
2018-11-11T09:22:07.075Z,225.00
2018-11-11T09:23:06.053Z,247.50
2018-11-11T09:24:06.077Z,264.38
2018-11-11T09:25:06.033Z,286.88
2018-11-11T09:26:06.061Z,270.00
2018-11-11T09:27:06.792Z,258.75
2018-11-11T09:28:05.995Z,326.25
2018-11-11T09:29:05.998Z,376.88
2018-11-11T09:30:06.018Z,371.25
2018-11-11T09:31:05.965Z,326.25
2018-11-11T09:32:05.985Z,303.75
2018-11-11T09:33:05.978Z,303.75
2018-11-11T09:34:05.963Z,315.00
2018-11-11T09:35:05.954Z,331.88
2018-11-11T09:36:06.718Z,337.50
2018-11-11T09:37:06.371Z,337.50
2018-11-11T09:38:05.889Z,303.75
2018-11-11T09:39:05.997Z,298.12
2018-11-11T09:40:05.931Z,286.88
2018-11-11T09:41:06.080Z,281.25
2018-11-11T09:42:05.940Z,247.50
2018-11-11T09:43:05.835Z,236.25
2018-11-11T09:44:05.828Z,230.62
2018-11-11T09:45:05.878Z,236.25
2018-11-11T09:46:13.482Z,225.00
2018-11-11T09:47:05.941Z,219.38
2018-11-11T09:48:05.789Z,213.75
2018-11-11T09:49:05.818Z,247.50
2018-11-11T09:50:05.817Z,270.00
2018-11-11T09:51:06.395Z,275.62
2018-11-11T09:52:13.654Z,292.50
2018-11-11T09:53:05.732Z,281.25
2018-11-11T09:54:05.803Z,281.25
2018-11-11T09:55:15.220Z,292.50
2018-11-11T09:56:05.785Z,303.75
2018-11-11T09:57:05.686Z,320.62
2018-11-11T09:58:05.683Z,320.62
2018-11-11T09:59:05.682Z,309.38
2018-11-11T10:00:05.694Z,281.25
2018-11-11T10:01:05.659Z,275.62
2018-11-11T10:02:05.636Z,253.12
2018-11-11T10:03:13.739Z,298.12
2018-11-11T10:04:05.612Z,315.00
2018-11-11T10:05:05.642Z,309.38
2018-11-11T10:06:05.657Z,315.00
2018-11-11T10:07:13.768Z,326.25
2018-11-11T10:08:05.569Z,326.25
2018-11-11T10:09:05.560Z,309.38
2018-11-11T10:10:05.692Z,303.75
2018-11-11T10:11:13.125Z,298.12
2018-11-11T10:12:13.223Z,298.12
2018-11-11T10:13:05.519Z,315.00
2018-11-11T10:14:05.512Z,320.62
2018-11-11T10:15:05.493Z,309.38
2018-11-11T10:16:05.662Z,281.25
2018-11-11T10:17:13.475Z,270.00
2018-11-11T10:18:05.559Z,292.50
2018-11-11T10:19:13.348Z,303.75
2018-11-11T10:20:05.553Z,365.62
2018-11-11T10:21:05.461Z,438.75
2018-11-11T10:22:05.430Z,444.38
2018-11-11T10:23:05.448Z,388.12
2018-11-11T10:24:13.403Z,309.38
2018-11-11T10:25:13.509Z,275.62
2018-11-11T10:26:14.882Z,275.62
2018-11-11T10:27:05.375Z,286.88
2018-11-11T10:28:05.356Z,315.00
2018-11-11T10:29:14.464Z,275.62
2018-11-11T10:30:05.381Z,309.38
2018-11-11T10:31:05.358Z,326.25
2018-11-11T10:32:13.406Z,320.62
2018-11-11T10:33:13.202Z,292.50
2018-11-11T10:34:05.293Z,241.88
2018-11-11T10:35:13.337Z,230.62
2018-11-11T10:37:15.940Z,320.62
2018-11-11T10:38:24.046Z,337.50
2018-11-11T10:39:23.854Z,337.50
2018-11-11T10:40:15.873Z,320.62
2018-11-11T10:41:16.026Z,303.75
